SAM3111 KABQ-KADW
Flight info
| Callsign | SAM3111 |
|---|---|
| Flight time | N/A |
| Altitude | 35000 |
| Route | LARGO3 ABQ FTI ICT DOSOA Q176 BUM COU TTH SHB BUCKO FRDMM6 |
| Aircraft | B737/M-SDE2E3FGHIRWXY/LB1 |
Departure
| Time | N/A |
|---|---|
| Airport | Albuquerque International Sunport (KABQ) |
Arrival
| Time | 2026-04-26 02:48 |
|---|---|
| Airport | Joint Base Andrews (KADW) |
| Time | Latitude | Longitude | Altitude | Speed | Heading |
|---|---|---|---|---|---|
| 2026-04-26 00:13 | 36.79318 | -101.29546 | 36833 ft | 519 kts | 67° |
| 2026-04-26 00:14 | 36.80490 | -101.25286 | 36835 ft | 518 kts | 67° |
| 2026-04-26 00:14 | 36.82825 | -101.16782 | 36831 ft | 518 kts | 67° |
| 2026-04-26 00:15 | 36.85142 | -101.08317 | 36844 ft | 518 kts | 67° |
| 2026-04-26 00:15 | 36.87471 | -100.99777 | 36846 ft | 519 kts | 67° |
| 2026-04-26 00:16 | 36.89795 | -100.91235 | 36845 ft | 520 kts | 67° |
| 2026-04-26 00:16 | 36.92115 | -100.82662 | 36859 ft | 521 kts | 67° |
| 2026-04-26 00:17 | 36.94438 | -100.74065 | 36850 ft | 522 kts | 67° |
| 2026-04-26 00:17 | 36.96757 | -100.65460 | 36838 ft | 523 kts | 67° |
| 2026-04-26 00:18 | 36.99071 | -100.56842 | 36839 ft | 523 kts | 67° |
| 2026-04-26 00:18 | 37.01379 | -100.48213 | 36842 ft | 523 kts | 67° |
| 2026-04-26 00:19 | 37.03682 | -100.39575 | 36831 ft | 523 kts | 67° |
| 2026-04-26 00:19 | 37.05962 | -100.30995 | 36838 ft | 523 kts | 67° |
| 2026-04-26 00:20 | 37.08253 | -100.22342 | 36845 ft | 522 kts | 67° |
| 2026-04-26 00:20 | 37.10536 | -100.13692 | 36842 ft | 522 kts | 67° |
| 2026-04-26 00:21 | 37.12814 | -100.05044 | 36841 ft | 522 kts | 68° |
| 2026-04-26 00:21 | 37.15065 | -99.96454 | 36844 ft | 522 kts | 67° |
| 2026-04-26 00:22 | 37.17320 | -99.87809 | 36842 ft | 521 kts | 67° |
| 2026-04-26 00:22 | 37.19576 | -99.79152 | 36842 ft | 521 kts | 67° |
| 2026-04-26 00:23 | 37.21811 | -99.70544 | 36838 ft | 521 kts | 67° |
| 2026-04-26 00:23 | 37.24051 | -99.61886 | 36832 ft | 521 kts | 68° |
| 2026-04-26 00:24 | 37.26280 | -99.53236 | 36832 ft | 521 kts | 68° |
| 2026-04-26 00:24 | 37.28503 | -99.44582 | 36835 ft | 521 kts | 68° |
| 2026-04-26 00:25 | 37.30718 | -99.35925 | 36830 ft | 520 kts | 68° |
| 2026-04-26 00:25 | 37.32915 | -99.27316 | 36838 ft | 520 kts | 68° |
| 2026-04-26 00:26 | 37.35119 | -99.18652 | 36834 ft | 520 kts | 68° |
| 2026-04-26 00:26 | 37.37314 | -99.09992 | 36834 ft | 519 kts | 68° |
| 2026-04-26 00:27 | 37.39497 | -99.01343 | 36831 ft | 519 kts | 68° |
| 2026-04-26 00:27 | 37.41308 | -98.94145 | 36819 ft | 518 kts | 68° |
| 2026-04-26 00:28 | 37.43831 | -98.84089 | 36832 ft | 517 kts | 68° |
| 2026-04-26 00:28 | 37.45640 | -98.76857 | 36818 ft | 517 kts | 68° |
| 2026-04-26 00:29 | 37.47788 | -98.68235 | 36820 ft | 516 kts | 68° |
| 2026-04-26 00:29 | 37.49929 | -98.59614 | 36815 ft | 516 kts | 68° |
| 2026-04-26 00:30 | 37.52049 | -98.51042 | 36813 ft | 514 kts | 68° |
| 2026-04-26 00:30 | 37.54167 | -98.42443 | 36814 ft | 514 kts | 68° |
| 2026-04-26 00:31 | 37.56283 | -98.33838 | 36816 ft | 513 kts | 68° |
| 2026-04-26 00:31 | 37.58390 | -98.25237 | 36804 ft | 513 kts | 68° |
| 2026-04-26 00:32 | 37.60487 | -98.16638 | 36809 ft | 513 kts | 68° |
| 2026-04-26 00:32 | 37.63624 | -98.03721 | 36804 ft | 512 kts | 69° |
| 2026-04-26 00:33 | 37.65692 | -97.95175 | 36809 ft | 512 kts | 69° |
| 2026-04-26 00:33 | 37.67767 | -97.86573 | 36808 ft | 511 kts | 69° |
| 2026-04-26 00:34 | 37.69829 | -97.77976 | 36805 ft | 511 kts | 69° |
| 2026-04-26 00:34 | 37.71885 | -97.69380 | 36813 ft | 511 kts | 69° |
| 2026-04-26 00:35 | 37.73926 | -97.60814 | 36818 ft | 513 kts | 69° |
| 2026-04-26 00:35 | 37.75823 | -97.52112 | 36813 ft | 514 kts | 72° |
| 2026-04-26 00:36 | 37.77399 | -97.43287 | 36804 ft | 514 kts | 74° |
| 2026-04-26 00:36 | 37.78923 | -97.34467 | 36823 ft | 514 kts | 73° |
| 2026-04-26 00:37 | 37.80498 | -97.25630 | 36827 ft | 514 kts | 73° |
| 2026-04-26 00:37 | 37.82090 | -97.16858 | 36834 ft | 515 kts | 73° |
| 2026-04-26 00:38 | 37.83701 | -97.08025 | 36837 ft | 515 kts | 73° |
| 2026-04-26 00:38 | 37.85299 | -96.99166 | 36836 ft | 516 kts | 73° |
| 2026-04-26 00:39 | 37.86877 | -96.90296 | 36831 ft | 517 kts | 73° |
| 2026-04-26 00:39 | 37.88454 | -96.81409 | 36826 ft | 517 kts | 74° |
| 2026-04-26 00:40 | 37.90025 | -96.72537 | 36826 ft | 517 kts | 74° |
| 2026-04-26 00:40 | 37.91596 | -96.63639 | 36821 ft | 516 kts | 74° |
| 2026-04-26 00:41 | 37.93155 | -96.54760 | 36816 ft | 516 kts | 74° |
| 2026-04-26 00:41 | 37.94704 | -96.45895 | 36826 ft | 515 kts | 74° |
| 2026-04-26 00:42 | 37.96237 | -96.37081 | 36820 ft | 515 kts | 74° |
| 2026-04-26 00:42 | 37.97771 | -96.28219 | 36832 ft | 514 kts | 74° |
| 2026-04-26 00:43 | 37.99295 | -96.19369 | 36823 ft | 514 kts | 74° |
| 2026-04-26 00:43 | 38.00813 | -96.10514 | 36819 ft | 514 kts | 75° |
| 2026-04-26 00:44 | 38.02326 | -96.01652 | 36822 ft | 513 kts | 75° |
| 2026-04-26 00:44 | 38.03829 | -95.92799 | 36828 ft | 514 kts | 75° |
| 2026-04-26 00:45 | 38.05326 | -95.83943 | 36829 ft | 513 kts | 75° |
| 2026-04-26 00:45 | 38.06817 | -95.75068 | 36830 ft | 513 kts | 75° |
| 2026-04-26 00:46 | 38.08293 | -95.66253 | 36815 ft | 513 kts | 75° |
| 2026-04-26 00:46 | 38.09772 | -95.57381 | 36826 ft | 513 kts | 75° |
| 2026-04-26 00:47 | 38.11240 | -95.48520 | 36830 ft | 512 kts | 75° |
| 2026-04-26 00:47 | 38.12701 | -95.39651 | 36819 ft | 512 kts | 75° |
| 2026-04-26 00:48 | 38.14144 | -95.30860 | 36829 ft | 511 kts | 75° |
| 2026-04-26 00:48 | 38.15590 | -95.21999 | 36819 ft | 510 kts | 76° |
| 2026-04-26 00:49 | 38.17023 | -95.13183 | 36825 ft | 508 kts | 75° |
| 2026-04-26 00:49 | 38.18439 | -95.04387 | 36832 ft | 507 kts | 76° |
| 2026-04-26 00:50 | 38.19829 | -94.95673 | 36833 ft | 506 kts | 76° |
| 2026-04-26 00:50 | 38.21230 | -94.86860 | 36831 ft | 505 kts | 76° |
| 2026-04-26 00:51 | 38.22608 | -94.78149 | 36836 ft | 504 kts | 76° |
| 2026-04-26 00:51 | 38.23984 | -94.69411 | 36840 ft | 504 kts | 76° |
| 2026-04-26 00:52 | 38.25354 | -94.60662 | 36848 ft | 503 kts | 76° |
| 2026-04-26 00:52 | 38.26717 | -94.51916 | 36855 ft | 503 kts | 76° |
| 2026-04-26 00:53 | 38.28291 | -94.43264 | 36853 ft | 501 kts | 70° |
| 2026-04-26 00:53 | 38.30424 | -94.34840 | 36856 ft | 499 kts | 67° |
| 2026-04-26 00:54 | 38.32653 | -94.26525 | 36855 ft | 500 kts | 68° |
| 2026-04-26 00:54 | 38.34810 | -94.18090 | 36851 ft | 501 kts | 69° |
| 2026-04-26 00:55 | 38.36902 | -94.09594 | 36853 ft | 502 kts | 69° |
| 2026-04-26 00:55 | 38.38976 | -94.01069 | 36847 ft | 503 kts | 69° |
| 2026-04-26 00:56 | 38.41032 | -93.92595 | 36844 ft | 503 kts | 69° |
| 2026-04-26 00:56 | 38.43098 | -93.84081 | 36837 ft | 502 kts | 70° |
| 2026-04-26 00:57 | 38.45159 | -93.75563 | 36848 ft | 501 kts | 70° |
| 2026-04-26 00:57 | 38.47209 | -93.67061 | 36838 ft | 501 kts | 70° |
| 2026-04-26 00:58 | 38.49253 | -93.58553 | 36847 ft | 500 kts | 70° |
| 2026-04-26 00:58 | 38.51282 | -93.50075 | 36849 ft | 499 kts | 70° |
| 2026-04-26 00:59 | 38.53293 | -93.41638 | 36860 ft | 498 kts | 70° |
| 2026-04-26 00:59 | 38.55305 | -93.33171 | 36870 ft | 498 kts | 70° |
| 2026-04-26 01:00 | 38.57312 | -93.24691 | 36879 ft | 497 kts | 70° |
| 2026-04-26 01:00 | 38.59310 | -93.16234 | 36885 ft | 496 kts | 70° |
| 2026-04-26 01:01 | 38.61295 | -93.07779 | 36888 ft | 496 kts | 70° |
| 2026-04-26 01:01 | 38.63260 | -92.99391 | 36887 ft | 495 kts | 71° |
| 2026-04-26 01:02 | 38.65231 | -92.90949 | 36882 ft | 494 kts | 71° |
| 2026-04-26 01:02 | 38.67190 | -92.82529 | 36890 ft | 493 kts | 71° |
| 2026-04-26 01:03 | 38.69147 | -92.74085 | 36885 ft | 493 kts | 71° |
| 2026-04-26 01:03 | 38.71077 | -92.65718 | 36887 ft | 492 kts | 71° |
| 2026-04-26 01:04 | 38.73014 | -92.57294 | 36897 ft | 492 kts | 71° |
| 2026-04-26 01:04 | 38.74944 | -92.48874 | 36898 ft | 492 kts | 71° |
| 2026-04-26 01:05 | 38.76853 | -92.40509 | 36908 ft | 492 kts | 71° |
| 2026-04-26 01:05 | 38.78770 | -92.32089 | 36926 ft | 491 kts | 71° |
| 2026-04-26 01:06 | 38.80678 | -92.23676 | 36913 ft | 491 kts | 71° |
| 2026-04-26 01:06 | 38.82346 | -92.15172 | 36932 ft | 492 kts | 76° |
| 2026-04-26 01:07 | 38.83654 | -92.06526 | 36931 ft | 493 kts | 77° |
| 2026-04-26 01:07 | 38.84910 | -91.97912 | 36930 ft | 493 kts | 77° |
| 2026-04-26 01:08 | 38.86230 | -91.89219 | 36929 ft | 492 kts | 77° |
| 2026-04-26 01:08 | 38.87559 | -91.80666 | 36928 ft | 491 kts | 77° |
| 2026-04-26 01:09 | 38.88896 | -91.72073 | 36934 ft | 490 kts | 77° |
| 2026-04-26 01:09 | 38.90223 | -91.63485 | 36936 ft | 490 kts | 77° |
| 2026-04-26 01:10 | 38.91541 | -91.54895 | 36939 ft | 490 kts | 77° |
| 2026-04-26 01:10 | 38.92852 | -91.46300 | 36934 ft | 489 kts | 77° |
| 2026-04-26 01:11 | 38.94155 | -91.37713 | 36934 ft | 489 kts | 77° |
| 2026-04-26 01:11 | 38.95231 | -91.30591 | 36938 ft | 489 kts | 77° |
| 2026-04-26 01:12 | 38.96521 | -91.22015 | 36935 ft | 488 kts | 77° |
| 2026-04-26 01:12 | 38.97803 | -91.13441 | 36935 ft | 488 kts | 77° |
| 2026-04-26 01:13 | 38.99077 | -91.04873 | 36936 ft | 488 kts | 77° |
| 2026-04-26 01:13 | 39.00336 | -90.96363 | 36938 ft | 487 kts | 77° |
| 2026-04-26 01:14 | 39.01599 | -90.87791 | 36934 ft | 487 kts | 78° |
| 2026-04-26 01:14 | 39.02855 | -90.79211 | 36937 ft | 487 kts | 78° |
| 2026-04-26 01:15 | 39.04103 | -90.70640 | 36945 ft | 487 kts | 78° |
| 2026-04-26 01:15 | 39.05344 | -90.62077 | 36946 ft | 487 kts | 78° |
| 2026-04-26 01:16 | 39.06571 | -90.53561 | 36952 ft | 487 kts | 78° |
| 2026-04-26 01:16 | 39.07798 | -90.44994 | 36943 ft | 486 kts | 78° |
| 2026-04-26 01:17 | 39.09019 | -90.36427 | 36944 ft | 486 kts | 78° |
| 2026-04-26 01:17 | 39.10229 | -90.27881 | 36956 ft | 485 kts | 78° |
| 2026-04-26 01:18 | 39.11435 | -90.19329 | 36957 ft | 485 kts | 78° |
| 2026-04-26 01:18 | 39.12637 | -90.10759 | 36963 ft | 485 kts | 78° |
| 2026-04-26 01:19 | 39.13829 | -90.02209 | 36964 ft | 485 kts | 78° |
| 2026-04-26 01:19 | 39.15004 | -89.93729 | 36979 ft | 484 kts | 78° |
| 2026-04-26 01:20 | 39.16180 | -89.85200 | 36978 ft | 483 kts | 79° |
| 2026-04-26 01:20 | 39.17350 | -89.76666 | 36985 ft | 482 kts | 79° |
| 2026-04-26 01:21 | 39.18511 | -89.68143 | 36992 ft | 482 kts | 79° |
| 2026-04-26 01:21 | 39.19658 | -89.59678 | 36991 ft | 481 kts | 79° |
| 2026-04-26 01:22 | 39.20806 | -89.51161 | 36991 ft | 482 kts | 79° |
| 2026-04-26 01:22 | 39.21947 | -89.42643 | 36993 ft | 482 kts | 79° |
| 2026-04-26 01:23 | 39.23084 | -89.34125 | 36989 ft | 482 kts | 79° |
| 2026-04-26 01:23 | 39.24213 | -89.25601 | 36991 ft | 482 kts | 79° |
| 2026-04-26 01:24 | 39.25336 | -89.17068 | 36993 ft | 482 kts | 79° |
| 2026-04-26 01:24 | 39.26451 | -89.08540 | 36989 ft | 482 kts | 79° |
| 2026-04-26 01:25 | 39.27561 | -89.00010 | 36990 ft | 482 kts | 79° |
| 2026-04-26 01:25 | 39.28664 | -88.91485 | 36989 ft | 481 kts | 79° |
| 2026-04-26 01:26 | 39.29755 | -88.83009 | 36990 ft | 481 kts | 79° |
| 2026-04-26 01:26 | 39.30845 | -88.74477 | 36987 ft | 481 kts | 80° |
| 2026-04-26 01:27 | 39.31928 | -88.65950 | 36977 ft | 480 kts | 80° |
| 2026-04-26 01:27 | 39.33003 | -88.57434 | 36981 ft | 480 kts | 80° |
| 2026-04-26 01:28 | 39.34070 | -88.48934 | 36984 ft | 479 kts | 80° |
| 2026-04-26 01:28 | 39.35126 | -88.40474 | 36979 ft | 479 kts | 80° |
| 2026-04-26 01:29 | 39.36179 | -88.31979 | 36982 ft | 478 kts | 80° |
| 2026-04-26 01:29 | 39.37224 | -88.23470 | 36970 ft | 478 kts | 80° |
| 2026-04-26 01:30 | 39.38267 | -88.14967 | 36978 ft | 478 kts | 80° |
| 2026-04-26 01:30 | 39.39295 | -88.06526 | 36970 ft | 477 kts | 81° |
| 2026-04-26 01:31 | 39.40322 | -87.98047 | 36974 ft | 477 kts | 81° |
| 2026-04-26 01:31 | 39.41339 | -87.89576 | 36978 ft | 476 kts | 81° |
| 2026-04-26 01:32 | 39.42351 | -87.81104 | 36982 ft | 476 kts | 81° |
| 2026-04-26 01:32 | 39.43358 | -87.72623 | 36980 ft | 477 kts | 81° |
| 2026-04-26 01:33 | 39.44352 | -87.64193 | 36983 ft | 477 kts | 81° |
| 2026-04-26 01:33 | 39.45346 | -87.55701 | 36980 ft | 477 kts | 81° |
| 2026-04-26 01:34 | 39.46334 | -87.47211 | 36981 ft | 477 kts | 81° |
| 2026-04-26 01:34 | 39.47317 | -87.38706 | 36976 ft | 478 kts | 81° |
| 2026-04-26 01:35 | 39.48296 | -87.30193 | 36969 ft | 479 kts | 81° |
| 2026-04-26 01:35 | 39.49263 | -87.21655 | 36974 ft | 479 kts | 81° |
| 2026-04-26 01:36 | 39.50177 | -87.13092 | 36969 ft | 480 kts | 82° |
| 2026-04-26 01:37 | 39.51523 | -87.00236 | 36983 ft | 481 kts | 82° |
| 2026-04-26 01:37 | 39.52416 | -86.91694 | 36983 ft | 481 kts | 82° |
| 2026-04-26 01:38 | 39.53311 | -86.83087 | 36987 ft | 482 kts | 82° |
| 2026-04-26 01:38 | 39.54197 | -86.74509 | 36991 ft | 482 kts | 82° |
| 2026-04-26 01:39 | 39.55081 | -86.65895 | 36991 ft | 482 kts | 82° |
| 2026-04-26 01:39 | 39.55960 | -86.57269 | 36993 ft | 482 kts | 82° |
| 2026-04-26 01:40 | 39.56831 | -86.48651 | 36994 ft | 482 kts | 82° |
| 2026-04-26 01:40 | 39.57693 | -86.40033 | 36985 ft | 482 kts | 82° |
| 2026-04-26 01:41 | 39.58552 | -86.31407 | 36982 ft | 482 kts | 82° |
| 2026-04-26 01:41 | 39.59403 | -86.22785 | 36981 ft | 482 kts | 82° |
| 2026-04-26 01:42 | 39.60246 | -86.14162 | 36986 ft | 482 kts | 82° |
| 2026-04-26 01:42 | 39.61078 | -86.05598 | 36990 ft | 481 kts | 83° |
| 2026-04-26 01:43 | 39.61911 | -85.96966 | 36990 ft | 482 kts | 83° |
| 2026-04-26 01:43 | 39.62737 | -85.88340 | 36986 ft | 482 kts | 83° |
| 2026-04-26 01:44 | 39.63296 | -85.79680 | 36958 ft | 482 kts | 95° |
| 2026-04-26 01:44 | 39.62570 | -85.71058 | 36977 ft | 481 kts | 97° |
| 2026-04-26 01:45 | 39.62236 | -85.62392 | 36981 ft | 481 kts | 90° |
| 2026-04-26 01:45 | 39.62224 | -85.53706 | 36985 ft | 482 kts | 91° |
| 2026-04-26 01:46 | 39.62088 | -85.45005 | 36991 ft | 482 kts | 92° |
| 2026-04-26 01:46 | 39.61822 | -85.36354 | 36999 ft | 483 kts | 93° |
| 2026-04-26 01:47 | 39.61507 | -85.27644 | 36999 ft | 484 kts | 94° |
| 2026-04-26 01:47 | 39.61184 | -85.18907 | 37005 ft | 485 kts | 94° |
| 2026-04-26 01:48 | 39.60860 | -85.10170 | 37012 ft | 485 kts | 94° |
| 2026-04-26 01:48 | 39.60535 | -85.01427 | 37007 ft | 485 kts | 94° |
| 2026-04-26 01:49 | 39.60205 | -84.92667 | 37009 ft | 488 kts | 94° |
| 2026-04-26 01:49 | 39.59872 | -84.83918 | 36999 ft | 488 kts | 94° |
| 2026-04-26 01:50 | 39.59522 | -84.75134 | 37004 ft | 487 kts | 94° |
| 2026-04-26 01:50 | 39.59169 | -84.66420 | 36998 ft | 486 kts | 94° |
| 2026-04-26 01:51 | 39.58810 | -84.57663 | 37001 ft | 486 kts | 94° |
| 2026-04-26 01:51 | 39.58447 | -84.48913 | 36997 ft | 486 kts | 94° |
| 2026-04-26 01:52 | 39.58076 | -84.40163 | 37002 ft | 486 kts | 94° |
| 2026-04-26 01:52 | 39.57699 | -84.31461 | 37000 ft | 486 kts | 94° |
| 2026-04-26 01:53 | 39.57314 | -84.22724 | 36981 ft | 486 kts | 95° |
| 2026-04-26 01:53 | 39.56923 | -84.13966 | 36971 ft | 486 kts | 95° |
| 2026-04-26 01:54 | 39.56526 | -84.05229 | 36982 ft | 485 kts | 95° |
| 2026-04-26 01:54 | 39.56122 | -83.96496 | 36987 ft | 486 kts | 95° |
| 2026-04-26 01:55 | 39.55712 | -83.87758 | 36988 ft | 486 kts | 95° |
| 2026-04-26 01:55 | 39.55294 | -83.79013 | 36990 ft | 486 kts | 95° |
| 2026-04-26 01:56 | 39.54868 | -83.70271 | 36987 ft | 487 kts | 95° |
| 2026-04-26 01:56 | 39.54440 | -83.61565 | 36997 ft | 486 kts | 95° |
| 2026-04-26 01:57 | 39.54003 | -83.52818 | 37008 ft | 487 kts | 95° |
| 2026-04-26 01:57 | 39.53560 | -83.44053 | 37008 ft | 488 kts | 95° |
| 2026-04-26 01:58 | 39.53107 | -83.35283 | 37011 ft | 488 kts | 96° |
| 2026-04-26 01:58 | 39.52648 | -83.26496 | 37010 ft | 489 kts | 96° |
| 2026-04-26 01:59 | 39.52180 | -83.17705 | 37018 ft | 489 kts | 96° |
| 2026-04-26 01:59 | 39.51707 | -83.08901 | 37022 ft | 490 kts | 96° |
| 2026-04-26 02:00 | 39.51230 | -83.00152 | 37026 ft | 490 kts | 96° |
| 2026-04-26 02:00 | 39.50741 | -82.91320 | 37028 ft | 491 kts | 96° |
| 2026-04-26 02:01 | 39.50329 | -82.83986 | 37033 ft | 491 kts | 96° |
| 2026-04-26 02:01 | 39.49744 | -82.73669 | 37028 ft | 491 kts | 97° |
| 2026-04-26 02:02 | 39.49322 | -82.66332 | 37025 ft | 492 kts | 97° |
| 2026-04-26 02:02 | 39.48808 | -82.57502 | 37027 ft | 491 kts | 97° |
| 2026-04-26 02:03 | 39.48287 | -82.48672 | 37016 ft | 492 kts | 97° |
| 2026-04-26 02:03 | 39.47759 | -82.39851 | 37009 ft | 492 kts | 97° |
| 2026-04-26 02:04 | 39.47226 | -82.31020 | 37001 ft | 491 kts | 97° |
| 2026-04-26 02:04 | 39.46686 | -82.22200 | 37000 ft | 491 kts | 97° |
| 2026-04-26 02:05 | 39.46139 | -82.13397 | 37001 ft | 491 kts | 97° |
| 2026-04-26 02:05 | 39.45583 | -82.04584 | 36993 ft | 491 kts | 97° |
| 2026-04-26 02:06 | 39.45024 | -81.95777 | 36991 ft | 490 kts | 97° |
| 2026-04-26 02:06 | 39.44462 | -81.87024 | 36992 ft | 491 kts | 98° |
| 2026-04-26 02:07 | 39.43887 | -81.78214 | 37001 ft | 491 kts | 98° |
| 2026-04-26 02:07 | 39.43305 | -81.69389 | 36994 ft | 492 kts | 98° |
| 2026-04-26 02:08 | 39.42716 | -81.60556 | 36995 ft | 493 kts | 98° |
| 2026-04-26 02:08 | 39.42119 | -81.51712 | 36987 ft | 493 kts | 98° |
| 2026-04-26 02:09 | 39.41515 | -81.42864 | 36982 ft | 494 kts | 98° |
| 2026-04-26 02:09 | 39.40907 | -81.34047 | 36979 ft | 495 kts | 98° |
| 2026-04-26 02:10 | 39.40289 | -81.25174 | 36982 ft | 495 kts | 98° |
| 2026-04-26 02:10 | 39.39664 | -81.16309 | 36979 ft | 495 kts | 99° |
| 2026-04-26 02:11 | 39.39032 | -81.07445 | 36988 ft | 495 kts | 99° |
| 2026-04-26 02:11 | 39.38396 | -80.98621 | 36995 ft | 496 kts | 99° |
| 2026-04-26 02:12 | 39.37748 | -80.89723 | 37010 ft | 497 kts | 99° |
| 2026-04-26 02:12 | 39.37093 | -80.80817 | 37015 ft | 498 kts | 99° |
| 2026-04-26 02:13 | 39.36430 | -80.71902 | 37007 ft | 499 kts | 99° |
| 2026-04-26 02:13 | 39.35759 | -80.62971 | 37009 ft | 499 kts | 99° |
| 2026-04-26 02:14 | 39.35081 | -80.54030 | 36998 ft | 500 kts | 100° |
| 2026-04-26 02:14 | 39.34399 | -80.45134 | 36984 ft | 500 kts | 100° |
| 2026-04-26 02:15 | 39.33708 | -80.36199 | 36993 ft | 500 kts | 100° |
| 2026-04-26 02:15 | 39.33008 | -80.27270 | 36988 ft | 500 kts | 100° |
| 2026-04-26 02:16 | 39.32298 | -80.18322 | 36530 ft | 506 kts | 100° |
| 2026-04-26 02:16 | 39.31939 | -80.13813 | 35937 ft | 502 kts | 100° |
| 2026-04-26 02:16 | 39.31581 | -80.09308 | 35055 ft | 505 kts | 101° |
| 2026-04-26 02:16 | 39.31219 | -80.04797 | 34233 ft | 506 kts | 101° |
| 2026-04-26 02:17 | 39.30854 | -80.00284 | 33380 ft | 507 kts | 102° |
| 2026-04-26 02:17 | 39.30488 | -79.95765 | 32777 ft | 502 kts | 101° |
| 2026-04-26 02:17 | 39.30125 | -79.91300 | 32155 ft | 498 kts | 101° |
| 2026-04-26 02:17 | 39.29762 | -79.86866 | 31551 ft | 494 kts | 101° |
| 2026-04-26 02:18 | 39.29399 | -79.82470 | 30955 ft | 490 kts | 101° |
| 2026-04-26 02:18 | 39.29046 | -79.78125 | 30535 ft | 483 kts | 100° |
| 2026-04-26 02:18 | 39.28705 | -79.73836 | 30114 ft | 477 kts | 100° |
| 2026-04-26 02:18 | 39.28368 | -79.69574 | 29704 ft | 479 kts | 100° |
| 2026-04-26 02:19 | 39.28028 | -79.65286 | 29297 ft | 481 kts | 99° |
| 2026-04-26 02:19 | 39.27686 | -79.60992 | 28868 ft | 479 kts | 99° |
| 2026-04-26 02:19 | 39.27350 | -79.56799 | 28451 ft | 473 kts | 99° |
| 2026-04-26 02:19 | 39.27008 | -79.52596 | 28039 ft | 469 kts | 99° |
| 2026-04-26 02:20 | 39.26670 | -79.48431 | 27623 ft | 465 kts | 99° |
| 2026-04-26 02:20 | 39.26334 | -79.44299 | 27220 ft | 461 kts | 98° |
| 2026-04-26 02:20 | 39.26000 | -79.40197 | 26822 ft | 458 kts | 98° |
| 2026-04-26 02:20 | 39.25665 | -79.36130 | 26419 ft | 454 kts | 98° |
| 2026-04-26 02:21 | 39.25332 | -79.32090 | 26029 ft | 451 kts | 98° |
| 2026-04-26 02:21 | 39.25002 | -79.28086 | 25629 ft | 448 kts | 98° |
| 2026-04-26 02:21 | 39.24671 | -79.24108 | 25249 ft | 444 kts | 97° |
| 2026-04-26 02:21 | 39.24339 | -79.20154 | 24860 ft | 442 kts | 97° |
| 2026-04-26 02:22 | 39.24005 | -79.16228 | 24472 ft | 439 kts | 97° |
| 2026-04-26 02:22 | 39.23671 | -79.12318 | 24096 ft | 437 kts | 97° |
| 2026-04-26 02:22 | 39.23339 | -79.08435 | 23717 ft | 434 kts | 97° |
| 2026-04-26 02:22 | 39.23008 | -79.04577 | 23333 ft | 431 kts | 97° |
| 2026-04-26 02:23 | 39.22680 | -79.00744 | 22962 ft | 429 kts | 97° |
| 2026-04-26 02:23 | 39.22353 | -78.96964 | 22586 ft | 427 kts | 97° |
| 2026-04-26 02:23 | 39.22013 | -78.93173 | 22214 ft | 424 kts | 97° |
| 2026-04-26 02:23 | 39.21649 | -78.89406 | 21854 ft | 422 kts | 98° |
| 2026-04-26 02:24 | 39.21280 | -78.85667 | 21488 ft | 420 kts | 98° |
| 2026-04-26 02:24 | 39.20913 | -78.81944 | 21125 ft | 418 kts | 97° |
| 2026-04-26 02:24 | 39.20551 | -78.78239 | 20763 ft | 415 kts | 97° |
| 2026-04-26 02:24 | 39.20192 | -78.74553 | 20400 ft | 413 kts | 97° |
| 2026-04-26 02:25 | 39.19835 | -78.70892 | 20044 ft | 410 kts | 97° |
| 2026-04-26 02:25 | 39.19477 | -78.67251 | 19690 ft | 408 kts | 97° |
| 2026-04-26 02:25 | 39.19120 | -78.63627 | 19324 ft | 405 kts | 97° |
| 2026-04-26 02:25 | 39.18766 | -78.60037 | 18990 ft | 403 kts | 97° |
| 2026-04-26 02:26 | 39.18415 | -78.56502 | 18637 ft | 401 kts | 97° |
| 2026-04-26 02:26 | 39.18062 | -78.52954 | 18289 ft | 398 kts | 97° |
| 2026-04-26 02:26 | 39.17710 | -78.49427 | 18032 ft | 393 kts | 97° |
| 2026-04-26 02:26 | 39.17363 | -78.45958 | 17998 ft | 387 kts | 97° |
| 2026-04-26 02:27 | 39.17025 | -78.42583 | 17864 ft | 379 kts | 97° |
| 2026-04-26 02:27 | 39.16685 | -78.39198 | 17250 ft | 380 kts | 98° |
| 2026-04-26 02:27 | 39.16311 | -78.35800 | 16639 ft | 380 kts | 101° |
| 2026-04-26 02:27 | 39.15686 | -78.32516 | 16307 ft | 375 kts | 108° |
| 2026-04-26 02:28 | 39.14847 | -78.29351 | 15973 ft | 372 kts | 111° |
| 2026-04-26 02:28 | 39.13962 | -78.26224 | 15645 ft | 371 kts | 111° |
| 2026-04-26 02:28 | 39.13113 | -78.23124 | 15330 ft | 371 kts | 110° |
| 2026-04-26 02:28 | 39.12293 | -78.19976 | 14999 ft | 371 kts | 109° |
| 2026-04-26 02:29 | 39.11499 | -78.16816 | 14672 ft | 370 kts | 109° |
| 2026-04-26 02:29 | 39.10716 | -78.13666 | 14346 ft | 369 kts | 109° |
| 2026-04-26 02:29 | 39.09933 | -78.10519 | 14023 ft | 368 kts | 109° |
| 2026-04-26 02:29 | 39.09139 | -78.07389 | 13699 ft | 367 kts | 109° |
| 2026-04-26 02:30 | 39.08341 | -78.04268 | 13383 ft | 365 kts | 109° |
| 2026-04-26 02:30 | 39.07555 | -78.01203 | 13065 ft | 362 kts | 109° |
| 2026-04-26 02:30 | 39.06772 | -77.98143 | 12747 ft | 357 kts | 109° |
| 2026-04-26 02:30 | 39.05998 | -77.95119 | 12434 ft | 353 kts | 110° |
| 2026-04-26 02:31 | 39.05229 | -77.92126 | 12136 ft | 351 kts | 110° |
| 2026-04-26 02:31 | 39.04473 | -77.89177 | 11824 ft | 343 kts | 110° |
| 2026-04-26 02:31 | 39.03734 | -77.86296 | 11530 ft | 334 kts | 110° |
| 2026-04-26 02:31 | 39.03013 | -77.83495 | 11241 ft | 326 kts | 110° |
| 2026-04-26 02:32 | 39.02317 | -77.80790 | 10963 ft | 318 kts | 110° |
| 2026-04-26 02:32 | 39.01627 | -77.78120 | 10698 ft | 312 kts | 110° |
| 2026-04-26 02:32 | 39.00947 | -77.75490 | 10443 ft | 309 kts | 110° |
| 2026-04-26 02:32 | 39.00269 | -77.72868 | 10178 ft | 307 kts | 109° |
| 2026-04-26 02:33 | 38.99603 | -77.70293 | 9908 ft | 299 kts | 109° |
| 2026-04-26 02:33 | 38.98956 | -77.67794 | 9645 ft | 291 kts | 109° |
| 2026-04-26 02:33 | 38.98318 | -77.65340 | 9402 ft | 290 kts | 109° |
| 2026-04-26 02:33 | 38.97629 | -77.62899 | 9151 ft | 291 kts | 111° |
| 2026-04-26 02:34 | 38.96901 | -77.60466 | 8911 ft | 293 kts | 112° |
| 2026-04-26 02:34 | 38.96165 | -77.58014 | 8652 ft | 294 kts | 112° |
| 2026-04-26 02:34 | 38.95436 | -77.55569 | 8395 ft | 292 kts | 112° |
| 2026-04-26 02:34 | 38.94743 | -77.53129 | 8129 ft | 290 kts | 106° |
| 2026-04-26 02:35 | 38.94665 | -77.50588 | 7884 ft | 286 kts | 74° |
| 2026-04-26 02:35 | 38.95380 | -77.48242 | 7731 ft | 279 kts | 64° |
| 2026-04-26 02:35 | 38.96197 | -77.46006 | 7534 ft | 280 kts | 64° |
| 2026-04-26 02:35 | 38.97002 | -77.43708 | 7346 ft | 282 kts | 66° |
| 2026-04-26 02:36 | 38.97771 | -77.41377 | 7157 ft | 283 kts | 66° |
| 2026-04-26 02:36 | 38.98537 | -77.39048 | 6957 ft | 281 kts | 66° |
| 2026-04-26 02:36 | 38.99277 | -77.36810 | 6863 ft | 264 kts | 66° |
| 2026-04-26 02:36 | 38.99975 | -77.34706 | 6724 ft | 248 kts | 66° |
| 2026-04-26 02:37 | 39.00510 | -77.32681 | 6602 ft | 232 kts | 84° |
| 2026-04-26 02:37 | 39.00557 | -77.30681 | 6497 ft | 217 kts | 92° |
| 2026-04-26 02:37 | 39.00563 | -77.28799 | 6241 ft | 213 kts | 89° |
| 2026-04-26 02:37 | 39.00648 | -77.26930 | 6047 ft | 205 kts | 88° |
| 2026-04-26 02:38 | 39.00747 | -77.25112 | 5888 ft | 202 kts | 88° |
| 2026-04-26 02:38 | 39.00841 | -77.23323 | 5760 ft | 198 kts | 89° |
| 2026-04-26 02:38 | 39.00930 | -77.21571 | 5615 ft | 195 kts | 89° |
| 2026-04-26 02:38 | 39.01015 | -77.19828 | 5473 ft | 194 kts | 89° |
| 2026-04-26 02:39 | 39.01096 | -77.18099 | 5341 ft | 192 kts | 89° |
| 2026-04-26 02:39 | 39.01175 | -77.16397 | 5204 ft | 190 kts | 89° |
| 2026-04-26 02:39 | 39.01251 | -77.14737 | 5080 ft | 187 kts | 89° |
| 2026-04-26 02:39 | 39.01326 | -77.13079 | 4955 ft | 185 kts | 89° |
| 2026-04-26 02:40 | 39.01399 | -77.11437 | 4838 ft | 183 kts | 90° |
| 2026-04-26 02:40 | 39.01469 | -77.09809 | 4711 ft | 181 kts | 90° |
| 2026-04-26 02:40 | 39.01538 | -77.08195 | 4593 ft | 180 kts | 90° |
| 2026-04-26 02:40 | 39.01606 | -77.06591 | 4480 ft | 179 kts | 90° |
| 2026-04-26 02:41 | 39.01673 | -77.04993 | 4358 ft | 179 kts | 90° |
| 2026-04-26 02:41 | 39.01740 | -77.03394 | 4244 ft | 178 kts | 91° |
| 2026-04-26 02:41 | 39.01806 | -77.01806 | 4127 ft | 178 kts | 90° |
| 2026-04-26 02:41 | 39.01873 | -77.00222 | 4000 ft | 177 kts | 90° |
| 2026-04-26 02:42 | 39.01940 | -76.98641 | 3884 ft | 176 kts | 90° |
| 2026-04-26 02:42 | 39.02006 | -76.97074 | 3767 ft | 175 kts | 90° |
| 2026-04-26 02:42 | 39.02070 | -76.95522 | 3642 ft | 173 kts | 91° |
| 2026-04-26 02:42 | 39.02133 | -76.93983 | 3527 ft | 172 kts | 91° |
| 2026-04-26 02:43 | 39.02255 | -76.90966 | 3295 ft | 168 kts | 91° |
| 2026-04-26 02:43 | 39.02157 | -76.89501 | 3158 ft | 162 kts | 115° |
| 2026-04-26 02:43 | 39.01562 | -76.88324 | 3080 ft | 154 kts | 133° |
| 2026-04-26 02:44 | 39.00722 | -76.87533 | 2966 ft | 149 kts | 148° |
| 2026-04-26 02:44 | 38.99723 | -76.87177 | 2842 ft | 154 kts | 176° |
| 2026-04-26 02:44 | 38.98642 | -76.87207 | 2737 ft | 156 kts | 172° |
| 2026-04-26 02:44 | 38.97546 | -76.87166 | 2615 ft | 159 kts | 173° |
| 2026-04-26 02:45 | 38.96448 | -76.87136 | 2571 ft | 156 kts | 173° |
| 2026-04-26 02:45 | 38.95362 | -76.87121 | 2583 ft | 158 kts | 174° |
| 2026-04-26 02:45 | 38.94260 | -76.87111 | 2602 ft | 157 kts | 174° |
| 2026-04-26 02:45 | 38.93152 | -76.87103 | 2400 ft | 160 kts | 174° |
| 2026-04-26 02:46 | 38.92049 | -76.87099 | 2186 ft | 158 kts | 175° |
| 2026-04-26 02:46 | 38.90956 | -76.87095 | 1987 ft | 160 kts | 176° |
| 2026-04-26 02:46 | 38.89831 | -76.87091 | 1764 ft | 162 kts | 176° |
| 2026-04-26 02:46 | 38.89083 | -76.87087 | 1621 ft | 162 kts | 177° |
| 2026-04-26 02:47 | 38.87603 | -76.87085 | 1326 ft | 155 kts | 178° |
| 2026-04-26 02:47 | 38.86529 | -76.87080 | 1136 ft | 154 kts | 179° |
| 2026-04-26 02:47 | 38.85816 | -76.87079 | 1001 ft | 155 kts | 179° |
| 2026-04-26 02:47 | 38.84749 | -76.87076 | 796 ft | 153 kts | 179° |
| 2026-04-26 02:48 | 38.83332 | -76.87063 | 513 ft | 153 kts | 180° |
| 2026-04-26 02:48 | 38.82616 | -76.87065 | 397 ft | 154 kts | 179° |
| 2026-04-26 02:48 | 38.81598 | -76.87049 | 284 ft | 137 kts | 184° |
| 2026-04-26 02:48 | 38.80917 | -76.87050 | 283 ft | 46 kts | 182° |
| 2026-04-26 02:49 | 38.80613 | -76.87049 | 282 ft | 42 kts | 179° |
| 2026-04-26 02:49 | 38.80341 | -76.87078 | 270 ft | 38 kts | 205° |
| 2026-04-26 02:49 | 38.80146 | -76.87226 | 267 ft | 31 kts | 210° |
| 2026-04-26 02:49 | 38.80018 | -76.87360 | 269 ft | 18 kts | 250° |
| 2026-04-26 02:50 | 38.80073 | -76.87451 | 272 ft | 15 kts | 353° |
| 2026-04-26 02:50 | 38.80180 | -76.87451 | 272 ft | 16 kts | 1° |
| 2026-04-26 02:50 | 38.80293 | -76.87448 | 272 ft | 16 kts | 1° |
| 2026-04-26 02:50 | 38.80402 | -76.87446 | 280 ft | 15 kts | 0° |
| 2026-04-26 02:51 | 38.80507 | -76.87444 | 276 ft | 15 kts | 1° |
| 2026-04-26 02:51 | 38.80606 | -76.87458 | 274 ft | 14 kts | 332° |
| 2026-04-26 02:51 | 38.80611 | -76.87560 | 275 ft | 12 kts | 254° |
| 2026-04-26 02:51 | 38.80610 | -76.87661 | 275 ft | 11 kts | 278° |
| 2026-04-26 02:52 | 38.80641 | -76.87728 | 276 ft | 8 kts | 9° |
| 2026-04-26 02:52 | 38.80669 | -76.87719 | 276 ft | 0 kts | 1° |